createdAt,value
2023-06-04T00:01:16.577Z,14.77
2023-06-04T00:03:43.966Z,14.73
2023-06-04T00:06:10.816Z,14.64
2023-06-04T00:08:37.372Z,14.61
2023-06-04T00:11:04.258Z,14.63
2023-06-04T00:13:31.075Z,14.63
2023-06-04T00:15:57.701Z,14.56
2023-06-04T00:18:24.311Z,14.53
2023-06-04T00:20:51.069Z,14.48
2023-06-04T00:23:18.062Z,14.46
2023-06-04T00:25:44.700Z,14.37
2023-06-04T00:28:12.328Z,14.32
2023-06-04T00:30:38.878Z,14.30
2023-06-04T00:33:05.536Z,14.25
2023-06-04T00:35:33.709Z,14.27
2023-06-04T00:38:00.479Z,14.29
2023-06-04T00:40:27.088Z,14.17
2023-06-04T00:42:53.694Z,14.10
2023-06-04T00:45:21.307Z,14.10
2023-06-04T00:47:48.417Z,14.13
2023-06-04T00:50:15.250Z,13.96
2023-06-04T00:52:42.678Z,13.98
2023-06-04T00:55:10.832Z,13.90
2023-06-04T00:57:38.846Z,13.85
2023-06-04T01:00:07.311Z,13.88
2023-06-04T01:02:38.287Z,13.89
2023-06-04T01:05:13.945Z,13.82
2023-06-04T01:07:42.013Z,13.79
2023-06-04T01:10:09.155Z,13.81
2023-06-04T01:12:36.073Z,13.72
2023-06-04T01:15:02.699Z,13.71
2023-06-04T01:17:40.100Z,13.68
2023-06-04T01:20:14.097Z,13.67
2023-06-04T01:22:52.923Z,13.57
2023-06-04T01:25:33.520Z,13.58
2023-06-04T01:28:01.747Z,13.57
2023-06-04T01:30:47.186Z,13.41
2023-06-04T01:33:16.014Z,13.41
2023-06-04T01:35:42.807Z,13.37
2023-06-04T01:38:10.421Z,13.33
2023-06-04T01:40:37.946Z,13.27
2023-06-04T01:43:05.073Z,13.24
2023-06-04T01:45:31.784Z,13.19
2023-06-04T01:47:58.457Z,13.14
2023-06-04T01:50:25.488Z,13.06
2023-06-04T01:52:52.315Z,13.07
2023-06-04T01:55:20.117Z,12.93
2023-06-04T01:57:48.261Z,12.95
2023-06-04T02:00:15.538Z,12.88
2023-06-04T02:02:44.138Z,12.89
2023-06-04T02:05:11.463Z,12.83
2023-06-04T02:07:40.143Z,12.79
2023-06-04T02:10:11.731Z,12.79
2023-06-04T02:12:40.573Z,12.72
2023-06-04T02:15:08.645Z,12.69
2023-06-04T02:17:38.699Z,12.65
2023-06-04T02:20:10.783Z,12.65
2023-06-04T02:22:37.566Z,12.56
2023-06-04T02:25:05.335Z,12.58
2023-06-04T02:27:32.472Z,12.49
2023-06-04T02:29:59.148Z,12.48
2023-06-04T02:32:26.012Z,12.41
2023-06-04T02:34:52.809Z,12.45
2023-06-04T02:37:19.604Z,12.32
2023-06-04T02:39:46.209Z,12.34
2023-06-04T02:42:12.922Z,12.27
2023-06-04T02:44:39.473Z,12.24
2023-06-04T02:47:06.670Z,12.22
2023-06-04T02:49:33.404Z,12.22
2023-06-04T02:51:59.956Z,12.17
2023-06-04T02:54:26.510Z,12.13
2023-06-04T02:56:53.317Z,12.01
2023-06-04T02:59:20.192Z,12.01
2023-06-04T03:01:47.567Z,12.03
2023-06-04T03:04:16.834Z,12.01
2023-06-04T03:06:47.448Z,11.98
2023-06-04T03:09:14.868Z,11.89
2023-06-04T03:11:41.573Z,11.89
2023-06-04T03:14:08.211Z,11.89
2023-06-04T03:16:34.800Z,11.90
2023-06-04T03:19:02.082Z,11.83
2023-06-04T03:21:30.158Z,11.77
2023-06-04T03:23:57.116Z,11.79
2023-06-04T03:26:23.932Z,11.76
2023-06-04T03:28:50.643Z,11.82
2023-06-04T03:31:17.320Z,11.76
2023-06-04T03:33:44.013Z,11.73
2023-06-04T03:36:10.695Z,11.69
2023-06-04T03:38:37.846Z,11.65
2023-06-04T03:41:04.666Z,11.59
2023-06-04T03:43:31.414Z,11.59
2023-06-04T03:45:58.039Z,11.59
2023-06-04T03:48:24.653Z,11.59
2023-06-04T03:50:51.828Z,11.65
2023-06-04T03:53:18.389Z,11.59
2023-06-04T03:55:45.017Z,11.59
2023-06-04T03:58:12.989Z,11.55
2023-06-04T04:00:39.603Z,11.52
2023-06-04T04:03:10.756Z,11.51
2023-06-04T04:05:38.163Z,11.52
2023-06-04T04:08:08.884Z,11.52
2023-06-04T04:10:36.071Z,11.49
2023-06-04T04:13:02.971Z,11.51
2023-06-04T04:15:29.957Z,11.55
2023-06-04T04:17:56.669Z,11.58
2023-06-04T04:20:23.817Z,11.62
2023-06-04T04:22:51.782Z,11.59
2023-06-04T04:25:18.443Z,11.62
2023-06-04T04:27:45.251Z,11.62
2023-06-04T04:30:13.796Z,11.67
2023-06-04T04:32:50.121Z,11.69
2023-06-04T04:35:19.287Z,11.65
2023-06-04T04:37:46.554Z,11.67
2023-06-04T04:40:14.753Z,11.74
2023-06-04T04:42:42.725Z,11.77
2023-06-04T04:45:10.084Z,11.77
2023-06-04T04:47:36.722Z,11.79
2023-06-04T04:50:03.548Z,11.83
2023-06-04T04:52:30.138Z,11.89
2023-06-04T04:54:58.548Z,11.87
2023-06-04T04:57:25.220Z,11.97
2023-06-04T04:59:51.795Z,11.95
2023-06-04T05:02:18.507Z,11.91
2023-06-04T05:04:45.190Z,11.97
2023-06-04T05:07:11.736Z,12.11
2023-06-04T05:09:40.299Z,12.08
2023-06-04T05:12:07.839Z,12.05
2023-06-04T05:14:36.792Z,12.11
2023-06-04T05:17:07.475Z,12.14
2023-06-04T05:19:34.536Z,12.32
2023-06-04T05:22:04.179Z,12.32
2023-06-04T05:24:33.038Z,12.31
2023-06-04T05:26:59.674Z,12.35
2023-06-04T05:29:26.242Z,12.32
2023-06-04T05:31:52.962Z,12.48
2023-06-04T05:34:22.574Z,12.59
2023-06-04T05:36:49.553Z,12.66
2023-06-04T05:39:16.186Z,12.70
2023-06-04T05:41:43.568Z,12.85
2023-06-04T05:44:10.201Z,13.00
2023-06-04T05:46:37.230Z,13.07
2023-06-04T05:49:03.874Z,13.14
2023-06-04T05:51:30.929Z,13.27
2023-06-04T05:53:57.543Z,13.33
2023-06-04T05:56:24.081Z,13.40
2023-06-04T05:58:54.069Z,13.62
2023-06-04T06:01:21.204Z,13.81
2023-06-04T06:03:47.988Z,13.89
2023-06-04T06:06:14.701Z,13.85
2023-06-04T06:08:41.332Z,14.01
2023-06-04T06:11:10.946Z,14.17
2023-06-04T06:13:38.087Z,14.34
2023-06-04T06:16:05.802Z,14.43
2023-06-04T06:18:32.465Z,14.56
2023-06-04T06:20:59.133Z,14.77
2023-06-04T06:23:25.760Z,14.78
2023-06-04T06:25:53.042Z,14.89
2023-06-04T06:28:19.797Z,15.06
2023-06-04T06:30:46.922Z,15.18
2023-06-04T06:33:13.687Z,15.49
2023-06-04T06:35:40.925Z,15.44
2023-06-04T06:38:07.518Z,15.67
2023-06-04T06:40:34.117Z,15.83
2023-06-04T06:43:00.744Z,16.05
2023-06-04T06:45:27.544Z,16.11
2023-06-04T06:47:54.348Z,16.18
2023-06-04T06:50:21.073Z,16.29
2023-06-04T06:52:47.693Z,16.69
2023-06-04T06:55:14.274Z,17.03
2023-06-04T06:57:41.077Z,17.10
2023-06-04T07:00:08.916Z,17.14
2023-06-04T07:02:36.142Z,17.34
2023-06-04T07:05:02.933Z,17.24
2023-06-04T07:07:29.689Z,17.64
2023-06-04T07:09:56.303Z,18.06
2023-06-04T07:12:22.857Z,18.09
2023-06-04T07:14:49.724Z,18.04
2023-06-04T07:17:18.805Z,18.23
2023-06-04T07:19:45.526Z,18.61
2023-06-04T07:22:12.367Z,18.94
2023-06-04T07:24:38.936Z,19.34
2023-06-04T07:27:15.207Z,19.29
2023-06-04T07:29:44.957Z,19.18
2023-06-04T07:32:12.449Z,19.54
2023-06-04T07:34:41.261Z,19.91
2023-06-04T07:37:09.004Z,19.81
2023-06-04T07:39:35.601Z,19.95
2023-06-04T07:42:02.497Z,19.40
2023-06-04T07:44:29.170Z,19.74
2023-06-04T07:46:55.739Z,19.51
2023-06-04T07:49:22.315Z,19.70
2023-06-04T07:51:49.071Z,21.00
2023-06-04T07:54:15.661Z,20.53
2023-06-04T07:56:42.250Z,20.53
2023-06-04T07:59:08.870Z,21.18
2023-06-04T08:01:35.684Z,21.15
2023-06-04T08:04:02.557Z,21.63
2023-06-04T08:06:29.233Z,21.62
2023-06-04T08:08:55.901Z,21.56
2023-06-04T08:11:25.613Z,21.55
2023-06-04T08:13:52.233Z,21.30
2023-06-04T08:16:18.864Z,21.05
2023-06-04T08:18:45.461Z,21.86
2023-06-04T08:21:13.073Z,21.45
2023-06-04T08:23:39.766Z,21.10
2023-06-04T08:26:08.956Z,21.28
2023-06-04T08:28:36.211Z,21.73
2023-06-04T08:31:03.039Z,22.54
2023-06-04T08:33:29.786Z,22.62
2023-06-04T08:35:56.638Z,22.16
2023-06-04T08:38:23.300Z,22.96
2023-06-04T08:40:54.026Z,23.23
2023-06-04T08:43:21.140Z,22.61
2023-06-04T08:45:50.356Z,22.86
2023-06-04T08:48:19.485Z,23.23
2023-06-04T08:50:48.879Z,23.98
2023-06-04T08:53:16.921Z,23.47
2023-06-04T08:55:44.002Z,23.46
2023-06-04T08:58:12.089Z,23.84
2023-06-04T09:00:38.664Z,24.36
2023-06-04T09:03:05.655Z,24.40
2023-06-04T09:05:33.472Z,24.46
2023-06-04T09:08:02.299Z,24.49
2023-06-04T09:10:31.157Z,23.92
2023-06-04T09:13:02.319Z,24.49
2023-06-04T09:15:28.902Z,24.16
2023-06-04T09:17:55.835Z,24.46
2023-06-04T09:20:23.854Z,24.59
2023-06-04T09:22:50.861Z,24.90
2023-06-04T09:25:28.356Z,25.10
2023-06-04T09:27:56.779Z,24.32
2023-06-04T09:30:24.351Z,24.50
2023-06-04T09:32:51.083Z,25.08
2023-06-04T09:35:19.443Z,25.67
2023-06-04T09:37:56.969Z,25.43
2023-06-04T09:40:24.639Z,25.63
2023-06-04T09:42:59.001Z,25.63
2023-06-04T09:45:32.891Z,25.46
2023-06-04T09:48:04.448Z,26.07
2023-06-04T09:50:39.980Z,25.72
2023-06-04T09:53:21.536Z,25.69
2023-06-04T09:55:59.371Z,26.68
2023-06-04T09:58:28.314Z,26.63
2023-06-04T10:00:59.691Z,26.44
2023-06-04T10:03:31.413Z,26.69
2023-06-04T10:05:59.026Z,25.66
2023-06-04T10:08:27.110Z,26.00
2023-06-04T10:11:00.140Z,26.20
2023-06-04T10:13:29.298Z,26.00
2023-06-04T10:15:59.268Z,26.01
2023-06-04T10:18:28.068Z,26.92
2023-06-04T10:20:56.924Z,26.95
2023-06-04T10:23:24.780Z,27.57
2023-06-04T10:25:53.590Z,27.16
2023-06-04T10:28:21.779Z,27.85
2023-06-04T10:30:51.570Z,29.52
2023-06-04T10:33:21.017Z,30.75
2023-06-04T10:35:48.348Z,31.70
2023-06-04T10:38:17.928Z,32.12
2023-06-04T10:40:45.094Z,32.28
2023-06-04T10:43:13.325Z,32.59
2023-06-04T10:45:41.411Z,32.80
2023-06-04T10:48:10.322Z,33.39
2023-06-04T10:50:54.078Z,33.56
2023-06-04T10:53:22.913Z,33.41
2023-06-04T10:55:50.890Z,33.49
2023-06-04T10:58:18.992Z,34.03
2023-06-04T11:00:47.380Z,33.55
2023-06-04T11:03:14.832Z,33.73
2023-06-04T11:05:43.952Z,33.88
2023-06-04T11:08:12.442Z,34.02
2023-06-04T11:10:41.205Z,34.04
2023-06-04T11:13:08.275Z,34.28
2023-06-04T11:15:44.662Z,34.48
2023-06-04T11:18:19.484Z,34.48
2023-06-04T11:20:47.768Z,34.45
2023-06-04T11:23:15.090Z,34.65
2023-06-04T11:25:44.259Z,34.85
2023-06-04T11:28:19.174Z,34.43
2023-06-04T11:30:57.735Z,34.81
2023-06-04T11:33:24.432Z,34.75
2023-06-04T11:35:51.362Z,34.58
2023-06-04T11:38:17.942Z,34.43
2023-06-04T11:40:46.286Z,34.48
2023-06-04T11:43:13.002Z,34.55
2023-06-04T11:45:39.649Z,34.31
2023-06-04T11:48:06.659Z,33.92
2023-06-04T11:50:34.459Z,34.30
2023-06-04T11:53:01.075Z,34.81
2023-06-04T11:55:27.968Z,34.30
2023-06-04T11:57:55.445Z,33.94
2023-06-04T12:00:23.213Z,34.52
2023-06-04T12:02:55.832Z,34.61
2023-06-04T12:05:24.653Z,34.54
2023-06-04T12:07:52.162Z,34.52
2023-06-04T12:10:22.615Z,34.36
2023-06-04T12:12:56.717Z,34.17
2023-06-04T12:15:23.739Z,33.99
2023-06-04T12:17:52.262Z,34.06
2023-06-04T12:20:20.400Z,34.41
2023-06-04T12:22:48.088Z,34.60
2023-06-04T12:25:26.989Z,35.13
2023-06-04T12:27:54.272Z,34.58
2023-06-04T12:30:21.001Z,34.99
2023-06-04T12:32:47.748Z,35.15
2023-06-04T12:35:16.139Z,34.19
2023-06-04T12:37:43.151Z,34.09
2023-06-04T12:40:10.522Z,34.17
2023-06-04T12:42:37.248Z,34.37
2023-06-04T12:45:04.332Z,34.50
2023-06-04T12:47:30.937Z,34.67
2023-06-04T12:49:59.299Z,34.72
2023-06-04T12:52:26.035Z,34.48
2023-06-04T12:54:52.590Z,34.67
2023-06-04T12:57:19.269Z,34.40
2023-06-04T12:59:45.870Z,34.52
2023-06-04T13:02:12.674Z,34.52
2023-06-04T13:04:39.263Z,34.16
2023-06-04T13:07:06.810Z,34.40
2023-06-04T13:09:36.128Z,34.37
2023-06-04T13:12:02.880Z,34.30
2023-06-04T13:14:34.057Z,34.33
2023-06-04T13:17:13.979Z,34.12
2023-06-04T13:19:48.497Z,33.86
2023-06-04T13:22:15.127Z,34.09
2023-06-04T13:24:42.151Z,34.16
2023-06-04T13:27:08.981Z,33.97
2023-06-04T13:29:35.900Z,34.24
2023-06-04T13:32:02.794Z,34.30
2023-06-04T13:34:29.500Z,34.16
2023-06-04T13:36:56.626Z,33.99
2023-06-04T13:39:23.565Z,33.82
2023-06-04T13:41:50.348Z,33.68
2023-06-04T13:44:16.957Z,33.75
2023-06-04T13:46:43.735Z,33.70
2023-06-04T13:49:10.649Z,33.59
2023-06-04T13:51:37.463Z,33.59
2023-06-04T13:54:04.211Z,33.69
2023-06-04T13:56:30.776Z,33.68
2023-06-04T13:58:57.488Z,33.54
2023-06-04T14:01:24.302Z,33.29
2023-06-04T14:03:51.403Z,33.07
2023-06-04T14:06:18.294Z,32.77
2023-06-04T14:08:44.920Z,32.61
2023-06-04T14:11:12.185Z,32.66
2023-06-04T14:13:39.890Z,32.42
2023-06-04T14:16:06.729Z,32.13
2023-06-04T14:18:33.506Z,32.18
2023-06-04T14:21:00.158Z,32.13
2023-06-04T14:23:26.765Z,31.57
2023-06-04T14:25:53.340Z,31.60
2023-06-04T14:28:21.828Z,31.43
2023-06-04T14:30:48.918Z,31.23
2023-06-04T14:33:15.634Z,31.15
2023-06-04T14:35:47.711Z,30.97
2023-06-04T14:38:15.561Z,30.62
2023-06-04T14:40:44.609Z,30.13
2023-06-04T14:43:12.586Z,30.06
2023-06-04T14:45:40.587Z,30.00
2023-06-04T14:50:40.082Z,29.66
2023-06-04T14:53:09.582Z,29.32
2023-06-04T14:55:37.070Z,29.53
2023-06-04T14:58:04.927Z,29.55
2023-06-04T15:00:32.480Z,29.33
2023-06-04T15:03:00.993Z,29.18
2023-06-04T15:05:27.688Z,29.26
2023-06-04T15:07:54.304Z,29.22
2023-06-04T15:10:21.036Z,28.61
2023-06-04T15:12:47.651Z,28.31
2023-06-04T15:15:14.242Z,28.35
2023-06-04T15:17:40.880Z,28.08
2023-06-04T15:20:08.369Z,28.02
2023-06-04T15:22:35.374Z,27.92
2023-06-04T15:25:02.123Z,27.89
2023-06-04T15:27:28.816Z,27.88
2023-06-04T15:29:55.525Z,27.46
2023-06-04T15:32:22.396Z,27.33
2023-06-04T15:34:49.057Z,27.22
2023-06-04T15:37:15.738Z,27.03
2023-06-04T15:39:42.325Z,26.98
2023-06-04T15:42:12.059Z,26.83
2023-06-04T15:44:38.740Z,26.56
2023-06-04T15:47:05.375Z,26.62
2023-06-04T15:49:31.991Z,26.51
2023-06-04T15:51:58.612Z,26.31
2023-06-04T15:54:43.812Z,26.18
2023-06-04T15:57:12.137Z,26.14
2023-06-04T15:59:38.796Z,26.12
2023-06-04T16:02:07.131Z,25.85
2023-06-04T16:04:34.060Z,25.59
2023-06-04T16:07:01.145Z,25.70
2023-06-04T16:09:29.557Z,25.61
2023-06-04T16:11:56.454Z,25.49
2023-06-04T16:14:23.039Z,25.56
2023-06-04T16:16:49.673Z,25.48
2023-06-04T16:19:16.414Z,25.39
2023-06-04T16:21:43.057Z,25.48
2023-06-04T16:24:09.731Z,25.43
2023-06-04T16:26:36.470Z,25.22
2023-06-04T16:29:03.183Z,25.18
2023-06-04T16:31:29.808Z,25.04
2023-06-04T16:33:56.453Z,25.00
2023-06-04T16:36:23.058Z,24.92
2023-06-04T16:38:49.678Z,24.81
2023-06-04T16:41:17.317Z,24.70
2023-06-04T16:43:43.928Z,24.64
2023-06-04T16:46:10.539Z,24.60
2023-06-04T16:48:39.360Z,24.57
2023-06-04T16:51:06.474Z,24.50
2023-06-04T16:53:33.112Z,24.53
2023-06-04T16:55:59.762Z,24.42
2023-06-04T16:58:26.920Z,24.30
2023-06-04T17:00:54.164Z,24.22
2023-06-04T17:03:21.182Z,24.05
2023-06-04T17:05:48.130Z,24.04
2023-06-04T17:08:14.778Z,24.01
2023-06-04T17:10:41.389Z,23.94
2023-06-04T17:13:09.282Z,23.86
2023-06-04T17:15:36.052Z,24.01
2023-06-04T17:18:03.311Z,23.88
2023-06-04T17:20:31.694Z,23.79
2023-06-04T17:23:01.990Z,23.70
2023-06-04T17:25:29.922Z,23.61
2023-06-04T17:27:57.256Z,23.54
2023-06-04T17:30:27.037Z,23.27
2023-06-04T17:32:53.861Z,23.19
2023-06-04T17:35:20.485Z,23.15
2023-06-04T17:37:47.046Z,23.13
2023-06-04T17:40:13.655Z,23.12
2023-06-04T17:42:42.022Z,23.03
2023-06-04T17:45:11.235Z,22.89
2023-06-04T17:47:38.303Z,22.78
2023-06-04T17:50:08.092Z,22.69
2023-06-04T17:52:35.484Z,22.72
2023-06-04T17:55:02.580Z,22.61
2023-06-04T17:57:30.131Z,22.43
2023-06-04T17:59:56.888Z,22.48
2023-06-04T18:02:23.627Z,22.28
2023-06-04T18:04:51.644Z,22.28
2023-06-04T18:07:21.011Z,22.25
2023-06-04T18:09:48.311Z,22.11
2023-06-04T18:12:15.556Z,21.90
2023-06-04T18:14:42.388Z,21.70
2023-06-04T18:17:09.118Z,21.59
2023-06-04T18:19:35.814Z,21.56
2023-06-04T18:22:03.591Z,21.49
2023-06-04T18:24:30.280Z,21.38
2023-06-04T18:26:56.974Z,21.25
2023-06-04T18:29:23.510Z,21.15
2023-06-04T18:31:51.298Z,21.11
2023-06-04T18:34:21.561Z,21.15
2023-06-04T18:36:54.193Z,21.14
2023-06-04T18:39:25.425Z,21.04
2023-06-04T18:41:55.393Z,20.93
2023-06-04T18:44:23.145Z,20.84
2023-06-04T18:46:49.896Z,20.67
2023-06-04T18:49:16.541Z,20.57
2023-06-04T18:51:43.570Z,20.60
2023-06-04T18:54:10.178Z,20.46
2023-06-04T18:56:36.814Z,20.28
2023-06-04T18:59:03.556Z,20.16
2023-06-04T19:01:30.214Z,20.25
2023-06-04T19:03:56.961Z,20.21
2023-06-04T19:06:23.588Z,20.08
2023-06-04T19:08:50.193Z,19.89
2023-06-04T19:11:17.219Z,19.71
2023-06-04T19:13:43.785Z,19.57
2023-06-04T19:16:13.614Z,19.51
2023-06-04T19:18:40.350Z,19.45
2023-06-04T19:21:07.054Z,19.33
2023-06-04T19:23:35.288Z,19.23
2023-06-04T19:26:02.684Z,19.12
2023-06-04T19:28:29.274Z,18.99
2023-06-04T19:30:56.013Z,18.87
2023-06-04T19:33:22.645Z,18.75
2023-06-04T19:35:49.460Z,18.73
2023-06-04T19:38:16.355Z,18.64
2023-06-04T19:40:43.085Z,18.58
2023-06-04T19:43:11.057Z,18.55
2023-06-04T19:45:38.358Z,18.55
2023-06-04T19:48:05.191Z,18.50
2023-06-04T19:50:31.964Z,18.45
2023-06-04T19:52:58.575Z,18.38
2023-06-04T19:55:25.256Z,18.30
2023-06-04T19:57:52.093Z,18.24
2023-06-04T20:00:18.715Z,18.22
2023-06-04T20:02:45.497Z,18.14
2023-06-04T20:05:12.330Z,18.09
2023-06-04T20:07:39.310Z,18.12
2023-06-04T20:10:07.277Z,18.02
2023-06-04T20:12:33.864Z,17.87
2023-06-04T20:15:00.755Z,17.82
2023-06-04T20:17:27.386Z,17.78
2023-06-04T20:19:55.950Z,17.71
2023-06-04T20:22:22.512Z,17.68
2023-06-04T20:24:49.140Z,17.66
2023-06-04T20:27:18.216Z,17.59
2023-06-04T20:29:45.353Z,17.58
2023-06-04T20:32:12.224Z,17.44
2023-06-04T20:34:38.836Z,17.39
2023-06-04T20:37:05.415Z,17.36
2023-06-04T20:39:32.415Z,17.28
2023-06-04T20:41:59.260Z,17.21
2023-06-04T20:44:25.809Z,17.20
2023-06-04T20:46:52.637Z,17.14
2023-06-04T20:49:19.314Z,17.15
2023-06-04T20:51:46.003Z,17.08
2023-06-04T20:54:12.693Z,17.04
2023-06-04T20:56:39.266Z,17.06
2023-06-04T20:59:06.015Z,17.03
2023-06-04T21:01:32.719Z,16.99
2023-06-04T21:04:01.429Z,16.91
2023-06-04T21:06:28.445Z,16.94
2023-06-04T21:08:55.008Z,16.90
2023-06-04T21:11:21.711Z,16.83
2023-06-04T21:13:48.274Z,16.69
2023-06-04T21:16:14.970Z,16.65
2023-06-04T21:18:41.566Z,16.58
2023-06-04T21:21:08.437Z,16.52
2023-06-04T21:23:35.290Z,16.52
2023-06-04T21:26:01.923Z,16.52
2023-06-04T21:28:28.514Z,16.46
2023-06-04T21:30:55.175Z,16.42
2023-06-04T21:33:21.749Z,16.33
2023-06-04T21:35:48.364Z,16.28
2023-06-04T21:38:15.257Z,16.21
2023-06-04T21:40:41.793Z,16.22
2023-06-04T21:43:08.376Z,16.17
2023-06-04T21:45:35.486Z,16.14
2023-06-04T21:48:03.457Z,16.07
2023-06-04T21:50:30.060Z,16.01
2023-06-04T21:52:56.702Z,15.97
2023-06-04T21:55:24.905Z,15.96
2023-06-04T21:57:52.536Z,15.84
